createdAt,value
2023-02-05T00:00:31.065Z,13.20
2023-02-05T00:02:59.005Z,13.20
2023-02-05T00:05:31.518Z,13.48
2023-02-05T00:07:59.729Z,13.10
2023-02-05T00:10:27.722Z,12.55
2023-02-05T00:12:55.728Z,12.93
2023-02-05T00:15:23.735Z,11.98
2023-02-05T00:17:51.682Z,12.07
2023-02-05T00:20:19.861Z,12.27
2023-02-05T00:22:49.117Z,12.05
2023-02-05T00:25:17.139Z,11.63
2023-02-05T00:27:48.068Z,10.80
2023-02-05T00:30:16.087Z,12.45
2023-02-05T00:32:44.126Z,11.23
2023-02-05T00:35:12.071Z,11.77
2023-02-05T00:37:40.043Z,10.80
2023-02-05T00:40:10.648Z,11.63
2023-02-05T00:42:38.946Z,10.93
2023-02-05T00:45:12.424Z,10.13
2023-02-05T00:47:40.427Z,9.95
2023-02-05T00:50:08.688Z,10.00
2023-02-05T00:52:36.726Z,9.75
2023-02-05T00:55:09.819Z,10.98
2023-02-05T00:57:37.821Z,10.13
2023-02-05T01:00:06.993Z,9.60
2023-02-05T01:02:35.096Z,9.52
2023-02-05T01:05:03.154Z,9.85
2023-02-05T01:07:31.188Z,8.90
2023-02-05T01:09:59.174Z,9.07
2023-02-05T01:12:28.619Z,8.75
2023-02-05T01:14:59.053Z,9.10
2023-02-05T01:17:27.298Z,9.18
2023-02-05T01:19:55.389Z,9.18
2023-02-05T01:22:23.369Z,9.27
2023-02-05T01:24:51.316Z,9.13
2023-02-05T01:27:19.427Z,8.45
2023-02-05T01:29:48.885Z,9.07
2023-02-05T01:32:19.721Z,8.95
2023-02-05T01:34:47.744Z,8.55
2023-02-05T01:37:18.482Z,8.20
2023-02-05T01:39:46.742Z,8.32
2023-02-05T01:42:19.493Z,8.07
2023-02-05T01:45:32.806Z,8.43
2023-02-05T01:48:04.648Z,8.38
2023-02-05T01:50:37.953Z,8.63
2023-02-05T01:53:09.419Z,8.48
2023-02-05T01:55:41.639Z,8.35
2023-02-05T02:00:38.019Z,7.85
2023-02-05T02:03:07.575Z,9.00
2023-02-05T02:08:06.318Z,8.18
2023-02-05T02:10:35.126Z,7.95
2023-02-05T02:13:03.801Z,7.93
2023-02-05T02:15:32.040Z,7.95
2023-02-05T02:18:17.300Z,8.75
2023-02-05T02:20:49.744Z,7.85
2023-02-05T02:23:28.778Z,7.28
2023-02-05T02:26:33.620Z,7.97
2023-02-05T02:29:04.874Z,7.55
2023-02-05T02:31:38.703Z,6.80
2023-02-05T02:34:13.639Z,7.03
2023-02-05T02:36:53.774Z,7.13
2023-02-05T02:39:26.535Z,7.38
2023-02-05T02:41:57.781Z,7.80
2023-02-05T02:44:34.686Z,7.38
2023-02-05T02:47:09.633Z,7.82
2023-02-05T02:49:40.225Z,7.80
2023-02-05T02:52:11.846Z,7.55
2023-02-05T02:54:44.718Z,7.82
2023-02-05T02:57:16.650Z,7.07
2023-02-05T02:59:48.580Z,7.28
2023-02-05T03:02:18.296Z,7.53
2023-02-05T03:04:53.057Z,7.30
2023-02-05T03:07:26.573Z,7.10
2023-02-05T03:10:01.560Z,6.97
2023-02-05T03:12:29.667Z,6.85
2023-02-05T03:14:59.504Z,7.28
2023-02-05T03:17:28.798Z,6.63
2023-02-05T03:20:02.992Z,6.43
2023-02-05T03:22:30.997Z,6.65
2023-02-05T03:24:59.012Z,6.32
2023-02-05T03:27:29.844Z,6.50
2023-02-05T03:29:59.540Z,6.82
2023-02-05T03:32:40.775Z,6.38
2023-02-05T03:35:19.460Z,6.50
2023-02-05T03:37:57.550Z,6.55
2023-02-05T03:40:34.716Z,6.03
2023-02-05T03:43:13.041Z,6.63
2023-02-05T03:45:58.120Z,6.10
2023-02-05T03:48:40.356Z,6.40
2023-02-05T03:51:23.839Z,6.32
2023-02-05T03:54:01.941Z,5.90
2023-02-05T03:56:36.574Z,6.10
2023-02-05T03:59:06.035Z,6.07
2023-02-05T04:01:35.711Z,5.97
2023-02-05T04:04:03.790Z,6.35
2023-02-05T04:06:31.712Z,6.18
2023-02-05T04:08:59.733Z,5.93
2023-02-05T04:11:27.880Z,5.85
2023-02-05T04:13:55.924Z,5.57
2023-02-05T04:16:23.941Z,5.97
2023-02-05T04:18:53.285Z,5.88
2023-02-05T04:21:21.300Z,5.28
2023-02-05T04:23:49.264Z,5.68
2023-02-05T04:26:17.728Z,5.32
2023-02-05T04:28:45.702Z,5.07
2023-02-05T04:31:14.524Z,5.57
2023-02-05T04:33:43.001Z,5.82
2023-02-05T04:36:12.552Z,5.72
2023-02-05T04:38:40.584Z,5.35
2023-02-05T04:41:11.021Z,4.95
2023-02-05T04:43:39.130Z,4.93
2023-02-05T04:46:07.749Z,5.25
2023-02-05T04:48:36.606Z,5.10
2023-02-05T04:51:07.752Z,4.85
2023-02-05T04:53:37.454Z,5.18
2023-02-05T04:56:07.216Z,4.93
2023-02-05T04:58:35.211Z,5.28
2023-02-05T05:01:03.776Z,5.00
2023-02-05T05:03:32.228Z,4.60
2023-02-05T05:06:05.034Z,5.18
2023-02-05T05:08:37.329Z,4.50
2023-02-05T05:11:07.803Z,4.38
2023-02-05T05:13:36.358Z,4.60
2023-02-05T05:16:05.567Z,4.22
2023-02-05T05:18:33.680Z,4.25
2023-02-05T05:21:01.764Z,4.07
2023-02-05T05:23:29.796Z,4.50
2023-02-05T05:25:59.133Z,3.72
2023-02-05T05:28:27.703Z,4.53
2023-02-05T05:30:55.620Z,4.32
2023-02-05T05:33:23.652Z,4.13
2023-02-05T05:35:51.623Z,4.35
2023-02-05T05:38:19.658Z,4.63
2023-02-05T05:41:05.284Z,4.45
2023-02-05T05:43:49.993Z,4.35
2023-02-05T05:46:24.051Z,4.20
2023-02-05T05:48:53.156Z,4.18
2023-02-05T05:51:22.072Z,4.10
2023-02-05T05:53:50.781Z,4.10
2023-02-05T05:56:19.819Z,3.60
2023-02-05T05:58:49.321Z,3.70
2023-02-05T06:01:19.678Z,3.90
2023-02-05T06:03:47.620Z,3.90
2023-02-05T06:06:15.567Z,3.92
2023-02-05T06:08:43.579Z,3.70
2023-02-05T06:11:11.530Z,3.47
2023-02-05T06:13:40.059Z,3.78
2023-02-05T06:16:09.752Z,3.55
2023-02-05T06:18:38.077Z,3.90
2023-02-05T06:21:06.561Z,3.22
2023-02-05T06:23:34.584Z,3.65
2023-02-05T06:26:02.532Z,3.25
2023-02-05T06:28:30.458Z,3.35
2023-02-05T06:31:01.048Z,3.08
2023-02-05T06:33:31.496Z,2.85
2023-02-05T06:36:00.634Z,3.17
2023-02-05T06:38:28.591Z,2.83
2023-02-05T06:40:56.599Z,2.88
2023-02-05T06:43:24.527Z,2.67
2023-02-05T06:45:52.529Z,3.05
2023-02-05T06:48:20.461Z,2.80
2023-02-05T06:50:49.764Z,2.70
2023-02-05T06:53:17.762Z,2.60
2023-02-05T06:55:45.820Z,2.75
2023-02-05T06:58:16.331Z,2.58
2023-02-05T07:00:44.377Z,2.50
2023-02-05T07:03:12.320Z,2.90
2023-02-05T07:05:43.105Z,2.63
2023-02-05T07:08:12.431Z,2.90
2023-02-05T07:10:40.347Z,2.28
2023-02-05T07:13:08.385Z,2.83
2023-02-05T07:15:37.503Z,2.33
2023-02-05T07:18:06.047Z,2.70
2023-02-05T07:20:34.035Z,2.50
2023-02-05T07:23:02.092Z,2.40
2023-02-05T07:25:36.443Z,2.45
2023-02-05T07:28:05.136Z,2.90
2023-02-05T07:30:33.152Z,2.13
2023-02-05T07:33:03.555Z,2.40
2023-02-05T07:35:32.097Z,2.20
2023-02-05T07:38:00.302Z,2.10
2023-02-05T07:40:28.380Z,2.13
2023-02-05T07:42:57.769Z,2.35
2023-02-05T07:45:25.783Z,2.15
2023-02-05T07:47:56.228Z,2.38
2023-02-05T07:50:24.214Z,1.88
2023-02-05T07:52:52.220Z,2.10
2023-02-05T07:55:20.308Z,2.30
2023-02-05T07:57:48.282Z,2.28
2023-02-05T08:00:18.217Z,2.15
2023-02-05T08:02:46.188Z,2.20
2023-02-05T08:05:14.129Z,2.15
2023-02-05T08:07:42.158Z,2.30
2023-02-05T08:10:14.203Z,2.03
2023-02-05T08:12:42.434Z,1.70
2023-02-05T08:15:11.149Z,2.10
2023-02-05T08:17:40.710Z,2.10
2023-02-05T08:20:12.393Z,2.15
2023-02-05T08:22:42.160Z,1.98
2023-02-05T08:25:13.145Z,2.20
2023-02-05T08:27:43.255Z,1.85
2023-02-05T08:30:13.754Z,1.85
2023-02-05T08:32:43.176Z,2.20
2023-02-05T08:35:11.182Z,1.85
2023-02-05T08:37:39.180Z,2.00
2023-02-05T08:40:07.930Z,1.92
2023-02-05T08:42:36.355Z,2.20
2023-02-05T08:45:08.804Z,2.10
2023-02-05T08:47:37.451Z,1.92
2023-02-05T08:50:07.700Z,1.75
2023-02-05T08:52:35.642Z,2.08
2023-02-05T08:55:04.472Z,2.40
2023-02-05T08:57:32.379Z,2.17
2023-02-05T09:00:00.376Z,1.80
2023-02-05T09:02:31.121Z,1.85
2023-02-05T09:05:08.551Z,2.03
2023-02-05T09:07:39.491Z,2.10
2023-02-05T09:10:09.156Z,2.20
2023-02-05T09:12:37.249Z,2.00
2023-02-05T09:15:09.070Z,1.90
2023-02-05T09:17:37.272Z,2.25
2023-02-05T09:20:05.708Z,2.00
2023-02-05T09:22:33.812Z,1.67
2023-02-05T09:25:03.099Z,1.90
2023-02-05T09:27:31.092Z,1.80
2023-02-05T09:29:59.118Z,2.20
2023-02-05T09:32:27.304Z,2.10
2023-02-05T09:34:55.290Z,2.17
2023-02-05T09:37:23.623Z,2.22
2023-02-05T09:40:21.941Z,1.70
2023-02-05T09:42:47.506Z,1.80
2023-02-05T09:45:38.739Z,1.95
2023-02-05T09:48:32.518Z,1.90
2023-02-05T09:51:01.249Z,1.83
2023-02-05T09:53:36.114Z,1.90
2023-02-05T09:56:07.879Z,1.77
2023-02-05T09:58:43.638Z,1.98
2023-02-05T10:01:17.496Z,1.95
2023-02-05T10:03:48.156Z,1.95
2023-02-05T10:06:46.493Z,1.92
2023-02-05T10:09:26.965Z,2.17
2023-02-05T10:12:04.026Z,1.90
2023-02-05T10:14:47.816Z,1.92
2023-02-05T10:17:30.105Z,2.03
2023-02-05T10:20:34.075Z,1.83
2023-02-05T10:23:14.860Z,2.10
2023-02-05T10:25:55.056Z,1.88
2023-02-05T10:28:45.474Z,2.20
2023-02-05T10:31:37.013Z,2.00
2023-02-05T10:34:17.840Z,2.10
2023-02-05T10:36:53.149Z,1.88
2023-02-05T10:39:27.545Z,2.40
2023-02-05T10:42:02.325Z,2.37
2023-02-05T10:44:35.927Z,1.75
2023-02-05T10:47:11.317Z,2.22
2023-02-05T10:49:47.705Z,1.88
2023-02-05T10:52:17.232Z,1.90
2023-02-05T10:54:46.547Z,2.00
2023-02-05T10:57:16.552Z,1.70
2023-02-05T10:59:52.926Z,2.20
2023-02-05T11:02:23.282Z,1.42
2023-02-05T11:04:55.782Z,1.88
2023-02-05T11:07:29.467Z,1.75
2023-02-05T11:10:13.585Z,1.80
2023-02-05T11:12:44.326Z,2.05
2023-02-05T11:15:20.922Z,1.98
2023-02-05T11:17:54.056Z,2.20
2023-02-05T11:20:33.945Z,1.90
2023-02-05T11:23:16.428Z,2.03
2023-02-05T11:25:52.349Z,2.03
2023-02-05T11:28:24.566Z,2.38
2023-02-05T11:30:53.234Z,2.28
2023-02-05T11:33:32.316Z,2.30
2023-02-05T11:36:05.985Z,2.47
2023-02-05T11:38:45.377Z,2.08
2023-02-05T11:41:16.324Z,2.30
2023-02-05T11:43:50.604Z,2.08
2023-02-05T11:46:21.029Z,1.88
2023-02-05T11:48:57.923Z,2.47
2023-02-05T11:51:48.104Z,2.20
2023-02-05T11:54:22.704Z,2.50
2023-02-05T11:57:08.854Z,2.70
2023-02-05T11:59:37.339Z,3.08
2023-02-05T12:02:30.280Z,1.95
2023-02-05T12:05:07.002Z,2.25
2023-02-05T12:07:41.508Z,2.22
2023-02-05T12:10:17.893Z,2.38
2023-02-05T12:13:01.418Z,2.92
2023-02-05T12:15:38.366Z,2.97
2023-02-05T12:18:20.084Z,2.78
2023-02-05T12:21:02.102Z,2.60
2023-02-05T12:23:51.587Z,2.42
2023-02-05T12:26:30.881Z,2.33
2023-02-05T12:29:19.861Z,2.65
2023-02-05T12:32:00.475Z,2.37
2023-02-05T12:34:36.616Z,2.53
2023-02-05T12:37:19.336Z,2.70
2023-02-05T12:39:52.819Z,2.58
2023-02-05T12:42:30.781Z,2.42
2023-02-05T12:45:30.223Z,2.25
2023-02-05T12:48:19.336Z,2.47
2023-02-05T12:51:02.356Z,2.50
2023-02-05T12:53:49.070Z,2.63
2023-02-05T12:56:44.924Z,2.50
2023-02-05T12:59:16.973Z,2.65
2023-02-05T13:01:52.322Z,1.98
2023-02-05T13:04:25.681Z,2.63
2023-02-05T13:06:59.726Z,2.95
2023-02-05T13:09:40.003Z,2.30
2023-02-05T13:12:13.259Z,2.30
2023-02-05T13:14:45.481Z,2.63
2023-02-05T13:17:18.398Z,2.50
2023-02-05T13:19:50.840Z,2.20
2023-02-05T13:22:41.179Z,2.25
2023-02-05T13:25:38.937Z,2.10
2023-02-05T13:28:41.328Z,2.53
2023-02-05T13:31:25.762Z,2.55
2023-02-05T13:33:56.194Z,3.03
2023-02-05T13:36:50.966Z,2.50
2023-02-05T13:39:39.300Z,2.72
2023-02-05T13:42:26.209Z,2.38
2023-02-05T13:45:34.739Z,2.20
2023-02-05T13:48:29.990Z,2.42
2023-02-05T13:51:21.885Z,2.63
2023-02-05T13:54:18.870Z,2.95
2023-02-05T13:56:53.553Z,2.40
2023-02-05T13:59:30.380Z,2.47
2023-02-05T14:02:01.835Z,2.28
2023-02-05T14:04:38.338Z,2.78
2023-02-05T14:07:26.629Z,2.53
2023-02-05T14:09:59.701Z,2.38
2023-02-05T14:12:30.445Z,2.60
2023-02-05T14:15:25.386Z,2.58
2023-02-05T14:17:56.169Z,3.00
2023-02-05T14:20:36.807Z,2.20
2023-02-05T14:23:13.277Z,2.72
2023-02-05T14:26:06.868Z,2.58
2023-02-05T14:28:38.023Z,2.40
2023-02-05T14:31:10.502Z,2.33
2023-02-05T14:33:40.659Z,2.53
2023-02-05T14:36:47.244Z,2.35
2023-02-05T14:39:27.467Z,2.28
2023-02-05T14:42:00.755Z,2.53
2023-02-05T14:44:31.290Z,1.98
2023-02-05T14:47:06.804Z,2.55
2023-02-05T14:49:42.548Z,2.45
2023-02-05T14:52:28.179Z,1.98
2023-02-05T14:55:00.331Z,2.50
2023-02-05T14:57:34.687Z,2.33
2023-02-05T15:00:05.474Z,2.45
2023-02-05T15:03:24.762Z,2.35
2023-02-05T15:05:57.014Z,2.10
2023-02-05T15:08:42.223Z,2.28
2023-02-05T15:11:16.837Z,2.35
2023-02-05T15:14:22.561Z,2.83
2023-02-05T15:17:26.976Z,2.60
2023-02-05T15:20:01.710Z,2.30
2023-02-05T15:22:36.710Z,2.63
2023-02-05T15:27:44.426Z,2.20
2023-02-05T15:30:21.329Z,2.72
2023-02-05T15:32:54.007Z,2.22
2023-02-05T15:35:26.466Z,2.25
2023-02-05T15:37:58.586Z,2.10
2023-02-05T15:40:30.504Z,2.83
2023-02-05T15:43:00.673Z,2.22
2023-02-05T15:45:32.078Z,2.45
2023-02-05T15:48:01.804Z,3.00
2023-02-05T15:50:32.339Z,3.05
2023-02-05T15:53:01.498Z,2.45
2023-02-05T15:55:29.911Z,2.22
2023-02-05T15:58:03.566Z,2.60
2023-02-05T16:00:34.879Z,2.30
2023-02-05T16:03:04.564Z,2.60
2023-02-05T16:05:34.404Z,2.33
2023-02-05T16:08:05.337Z,2.70
2023-02-05T16:10:35.518Z,1.92
2023-02-05T16:13:06.070Z,2.10
2023-02-05T16:15:40.861Z,2.00
2023-02-05T16:18:17.736Z,1.88
2023-02-05T16:20:52.271Z,2.05
2023-02-05T16:23:26.538Z,2.15
2023-02-05T16:25:58.657Z,2.45
2023-02-05T16:28:37.667Z,2.45
2023-02-05T16:31:08.683Z,2.20
2023-02-05T16:33:41.406Z,2.13
2023-02-05T16:36:18.331Z,2.60
2023-02-05T16:38:51.825Z,2.72
2023-02-05T16:41:24.310Z,2.85
2023-02-05T16:43:54.376Z,2.22
2023-02-05T16:46:32.728Z,2.50
2023-02-05T16:49:05.647Z,2.65
2023-02-05T16:51:52.470Z,2.22
2023-02-05T16:54:29.757Z,2.10
2023-02-05T16:57:03.231Z,2.33
2023-02-05T16:59:35.145Z,2.47
2023-02-05T17:02:04.428Z,2.20
2023-02-05T17:04:37.000Z,2.28
2023-02-05T17:07:18.511Z,2.45
2023-02-05T17:09:46.577Z,1.87
2023-02-05T17:12:38.656Z,2.28
2023-02-05T17:15:29.467Z,2.25
2023-02-05T17:17:59.279Z,1.85
2023-02-05T17:20:28.510Z,2.40
2023-02-05T17:23:12.419Z,2.47
2023-02-05T17:25:43.011Z,1.88
2023-02-05T17:28:16.499Z,2.30
2023-02-05T17:30:46.500Z,1.98
2023-02-05T17:33:18.549Z,2.10
2023-02-05T17:35:46.654Z,2.53
2023-02-05T17:38:16.716Z,2.50
2023-02-05T17:40:45.685Z,2.53
2023-02-05T17:43:13.759Z,2.97
2023-02-05T17:45:44.223Z,2.40
2023-02-05T17:48:12.661Z,2.80
2023-02-05T17:50:40.721Z,2.60
2023-02-05T17:53:14.059Z,2.28
2023-02-05T17:55:46.671Z,2.15
2023-02-05T17:58:14.747Z,2.20
2023-02-05T18:00:42.824Z,2.28
2023-02-05T18:03:10.863Z,2.28
2023-02-05T18:05:38.995Z,2.53
2023-02-05T18:08:07.472Z,2.35
2023-02-05T18:10:38.169Z,2.97
2023-02-05T18:13:07.696Z,2.42
2023-02-05T18:15:35.824Z,2.25
2023-02-05T18:18:03.834Z,2.58
2023-02-05T18:20:31.834Z,2.30
2023-02-05T18:23:00.017Z,2.28
2023-02-05T18:25:28.086Z,3.30
2023-02-05T18:27:56.691Z,2.63
2023-02-05T18:30:26.066Z,2.72
2023-02-05T18:32:54.052Z,2.45
2023-02-05T18:35:22.032Z,3.00
2023-02-05T18:37:50.226Z,3.30
2023-02-05T18:40:18.250Z,2.70
2023-02-05T18:42:49.574Z,2.40
2023-02-05T18:45:17.938Z,2.30
2023-02-05T18:47:47.270Z,1.90
2023-02-05T18:50:15.993Z,2.53
2023-02-05T18:52:43.920Z,2.83
2023-02-05T18:55:12.631Z,2.78
2023-02-05T18:57:40.545Z,2.58
2023-02-05T19:00:09.985Z,2.15
2023-02-05T19:02:41.697Z,2.70
2023-02-05T19:05:11.613Z,2.38
2023-02-05T19:07:40.084Z,3.53
2023-02-05T19:10:08.542Z,2.55
2023-02-05T19:12:36.577Z,2.45
2023-02-05T19:15:05.309Z,2.45
2023-02-05T19:17:33.314Z,2.72
2023-02-05T19:20:01.241Z,2.85
2023-02-05T19:22:30.944Z,2.90
2023-02-05T19:24:58.979Z,2.60
2023-02-05T19:27:29.204Z,2.65
2023-02-05T19:29:57.333Z,2.85
2023-02-05T19:32:25.333Z,2.67
2023-02-05T19:34:54.913Z,2.67
2023-02-05T19:37:22.940Z,2.40
2023-02-05T19:39:52.430Z,2.78
2023-02-05T19:42:20.362Z,2.33
2023-02-05T19:44:48.351Z,2.78
2023-02-05T19:47:16.460Z,2.33
2023-02-05T19:49:44.550Z,2.63
2023-02-05T19:52:12.664Z,2.83
2023-02-05T19:54:40.614Z,2.78
2023-02-05T19:57:09.907Z,2.42
2023-02-05T19:59:38.043Z,2.70
2023-02-05T20:02:05.997Z,3.30
2023-02-05T20:04:34.075Z,3.10
2023-02-05T20:07:02.235Z,2.53
2023-02-05T20:09:32.986Z,2.30
2023-02-05T20:12:01.103Z,2.97
2023-02-05T20:14:30.422Z,3.03
2023-02-05T20:16:58.434Z,3.30
2023-02-05T20:19:26.475Z,2.70
2023-02-05T20:21:56.631Z,2.30
2023-02-05T20:24:24.774Z,2.75
2023-02-05T20:26:53.119Z,2.88
2023-02-05T20:29:38.759Z,2.63
2023-02-05T20:32:08.942Z,2.67
2023-02-05T20:34:39.485Z,2.95
2023-02-05T20:37:09.553Z,2.75
2023-02-05T20:39:41.789Z,3.42
